Aviation Digital Data Service (ADDS)

Output produced by METARs form (0014 UTC 20 April 2019)
found at http://www.aviationweather.gov/metar/data/
 
METAR text: LSZS 192350Z AUTO VRB03KT CAVOK M02/M04 Q1030
Conditions at: LSZS (SAMEDAN , CH) observed 2350 UTC 19 April 2019
Temperature: -2.0°C (28°F)
Dewpoint: -4.0°C (25°F) [RH = 86%]
Pressure (altimeter): 30.41 inches Hg (1030.0 mb)
Winds: variable direction winds at 3 MPH (3 knots; 1.5 m/s)
Visibility: 6 or more miles (10+ km)
Ceiling: ceiling and visibility are OK
Clouds: unknown
Weather: no significant weather observed at this time

METAR text: LSZS 192320Z AUTO 20003KT CAVOK M02/M04 Q1030
Conditions at: LSZS (SAMEDAN , CH) observed 2320 UTC 19 April 2019
Temperature: -2.0°C (28°F)
Dewpoint: -4.0°C (25°F) [RH = 86%]
Pressure (altimeter): 30.41 inches Hg (1030.0 mb)
Winds: from the SSW (200 degrees) at 3 MPH (3 knots; 1.5 m/s)
Visibility: 6 or more miles (10+ km)
Ceiling: ceiling and visibility are OK
Clouds: unknown
Weather: no significant weather observed at this time

METAR text: LSZS 192250Z AUTO VRB02KT CAVOK M02/M04 Q1030
Conditions at: LSZS (SAMEDAN , CH) observed 2250 UTC 19 April 2019
Temperature: -2.0°C (28°F)
Dewpoint: -4.0°C (25°F) [RH = 86%]
Pressure (altimeter): 30.41 inches Hg (1030.0 mb)
Winds: variable direction winds at 2 MPH (2 knots; 1.0 m/s)
Visibility: 6 or more miles (10+ km)
Ceiling: ceiling and visibility are OK
Clouds: unknown
Weather: no significant weather observed at this time

METAR text: LSZS 192220Z AUTO VRB01KT CAVOK M02/M04 Q1030
Conditions at: LSZS (SAMEDAN , CH) observed 2220 UTC 19 April 2019
Temperature: -2.0°C (28°F)
Dewpoint: -4.0°C (25°F) [RH = 86%]
Pressure (altimeter): 30.41 inches Hg (1030.0 mb)
Winds: variable direction winds at 1 MPH (1 knots; 0.5 m/s)
Visibility: 6 or more miles (10+ km)
Ceiling: ceiling and visibility are OK
Clouds: unknown
Weather: no significant weather observed at this time

METAR text: LSZS 192150Z AUTO VRB01KT CAVOK M00/M02 Q1030
Conditions at: LSZS (SAMEDAN , CH) observed 2150 UTC 19 April 2019
Temperature: 0.0°C (32°F)
Dewpoint: -2.0°C (28°F) [RH = 86%]
Pressure (altimeter): 30.41 inches Hg (1030.0 mb)
Winds: variable direction winds at 1 MPH (1 knots; 0.5 m/s)
Visibility: 6 or more miles (10+ km)
Ceiling: ceiling and visibility are OK
Clouds: unknown
Weather: no significant weather observed at this time

METAR text: LSZS 192120Z AUTO 21002KT CAVOK M00/M03 Q1030
Conditions at: LSZS (SAMEDAN , CH) observed 2120 UTC 19 April 2019
Temperature: 0.0°C (32°F)
Dewpoint: -3.0°C (27°F) [RH = 80%]
Pressure (altimeter): 30.41 inches Hg (1030.0 mb)
Winds: from the SSW (210 degrees) at 2 MPH (2 knots; 1.0 m/s)
Visibility: 6 or more miles (10+ km)
Ceiling: ceiling and visibility are OK
Clouds: unknown
Weather: no significant weather observed at this time

METAR text: LSZS 192050Z AUTO 19004KT CAVOK 00/M03 Q1030
Conditions at: LSZS (SAMEDAN , CH) observed 2050 UTC 19 April 2019
Temperature: 0.0°C (32°F)
Dewpoint: -3.0°C (27°F) [RH = 80%]
Pressure (altimeter): 30.41 inches Hg (1030.0 mb)
Winds: from the S (190 degrees) at 5 MPH (4 knots; 2.1 m/s)
Visibility: 6 or more miles (10+ km)
Ceiling: ceiling and visibility are OK
Clouds: unknown
Weather: no significant weather observed at this time

METAR text: LSZS 192020Z AUTO 18003KT CAVOK 01/M03 Q1030
Conditions at: LSZS (SAMEDAN , CH) observed 2020 UTC 19 April 2019
Temperature: 1.0°C (34°F)
Dewpoint: -3.0°C (27°F) [RH = 75%]
Pressure (altimeter): 30.41 inches Hg (1030.0 mb)
Winds: from the S (180 degrees) at 3 MPH (3 knots; 1.5 m/s)
Visibility: 6 or more miles (10+ km)
Ceiling: ceiling and visibility are OK
Clouds: unknown
Weather: no significant weather observed at this time

METAR text: LSZS 191950Z AUTO 21005KT CAVOK 01/M03 Q1030
Conditions at: LSZS (SAMEDAN , CH) observed 1950 UTC 19 April 2019
Temperature: 1.0°C (34°F)
Dewpoint: -3.0°C (27°F) [RH = 75%]
Pressure (altimeter): 30.41 inches Hg (1030.0 mb)
Winds: from the SSW (210 degrees) at 6 MPH (5 knots; 2.6 m/s)
Visibility: 6 or more miles (10+ km)
Ceiling: ceiling and visibility are OK
Clouds: unknown
Weather: no significant weather observed at this time

METAR text: LSZS 191920Z AUTO 23003KT CAVOK 03/M02 Q1030
Conditions at: LSZS (SAMEDAN , CH) observed 1920 UTC 19 April 2019
Temperature: 3.0°C (37°F)
Dewpoint: -2.0°C (28°F) [RH = 70%]
Pressure (altimeter): 30.41 inches Hg (1030.0 mb)
Winds: from the SW (230 degrees) at 3 MPH (3 knots; 1.5 m/s)
Visibility: 6 or more miles (10+ km)
Ceiling: ceiling and visibility are OK
Clouds: unknown
Weather: no significant weather observed at this time

METAR text: LSZS 191850Z AUTO 17006KT CAVOK 03/M02 Q1030
Conditions at: LSZS (SAMEDAN , CH) observed 1850 UTC 19 April 2019
Temperature: 3.0°C (37°F)
Dewpoint: -2.0°C (28°F) [RH = 70%]
Pressure (altimeter): 30.41 inches Hg (1030.0 mb)
Winds: from the S (170 degrees) at 7 MPH (6 knots; 3.1 m/s)
Visibility: 6 or more miles (10+ km)
Ceiling: ceiling and visibility are OK
Clouds: unknown
Weather: no significant weather observed at this time

METAR text: LSZS 191820Z AUTO 17007KT CAVOK 04/M02 Q1030
Conditions at: LSZS (SAMEDAN , CH) observed 1820 UTC 19 April 2019
Temperature: 4.0°C (39°F)
Dewpoint: -2.0°C (28°F) [RH = 65%]
Pressure (altimeter): 30.41 inches Hg (1030.0 mb)
Winds: from the S (170 degrees) at 8 MPH (7 knots; 3.6 m/s)
Visibility: 6 or more miles (10+ km)
Ceiling: ceiling and visibility are OK
Clouds: unknown
Weather: no significant weather observed at this time

METAR text: LSZS 191750Z AUTO 15005KT 9999 NCD 07/M01 Q1029
Conditions at: LSZS (SAMEDAN , CH) observed 1750 UTC 19 April 2019
Temperature: 7.0°C (45°F)
Dewpoint: -1.0°C (30°F) [RH = 57%]
Pressure (altimeter): 30.38 inches Hg (1029.0 mb)
Winds: from the SSE (150 degrees) at 6 MPH (5 knots; 2.6 m/s)
Visibility: 6 or more miles (10+ km)
Ceiling: at least 12,000 feet AGL
Clouds: sky clear below 12,000 feet AGL
Weather: no significant weather observed at this time

METAR text: LSZS 191720Z AUTO 21004KT CAVOK 06/M02 Q1029
Conditions at: LSZS (SAMEDAN , CH) observed 1720 UTC 19 April 2019
Temperature: 6.0°C (43°F)
Dewpoint: -2.0°C (28°F) [RH = 56%]
Pressure (altimeter): 30.38 inches Hg (1029.0 mb)
Winds: from the SSW (210 degrees) at 5 MPH (4 knots; 2.1 m/s)
Visibility: 6 or more miles (10+ km)
Ceiling: ceiling and visibility are OK
Clouds: unknown
Weather: no significant weather observed at this time

METAR text: LSZS 191650Z 23006KT 9999 FEW052 07/M02 Q1029 RMK U
Conditions at: LSZS (SAMEDAN , CH) observed 1650 UTC 19 April 2019
Temperature: 7.0°C (45°F)
Dewpoint: -2.0°C (28°F) [RH = 53%]
Pressure (altimeter): 30.38 inches Hg (1029.0 mb)
Winds: from the SW (230 degrees) at 7 MPH (6 knots; 3.1 m/s)
Visibility: 6 or more miles (10+ km)
Ceiling: at least 12,000 feet AGL
Clouds: few clouds at 5200 feet AGL
Weather: no significant weather observed at this time

METAR text: LSZS 191620Z 21008KT 9999 FEW052 08/M02 Q1029 RMK U
Conditions at: LSZS (SAMEDAN , CH) observed 1620 UTC 19 April 2019
Temperature: 8.0°C (46°F)
Dewpoint: -2.0°C (28°F) [RH = 49%]
Pressure (altimeter): 30.38 inches Hg (1029.0 mb)
Winds: from the SSW (210 degrees) at 9 MPH (8 knots; 4.1 m/s)
Visibility: 6 or more miles (10+ km)
Ceiling: at least 12,000 feet AGL
Clouds: few clouds at 5200 feet AGL
Weather: no significant weather observed at this time

METAR text: LSZS 191550Z VRB01KT 9999 SCT052 08/M03 Q1029 RMK U
Conditions at: LSZS (SAMEDAN , CH) observed 1550 UTC 19 April 2019
Temperature: 8.0°C (46°F)
Dewpoint: -3.0°C (27°F) [RH = 46%]
Pressure (altimeter): 30.38 inches Hg (1029.0 mb)
Winds: variable direction winds at 1 MPH (1 knots; 0.5 m/s)
Visibility: 6 or more miles (10+ km)
Ceiling: at least 12,000 feet AGL
Clouds: scattered clouds at 5200 feet AGL
Weather: no significant weather observed at this time

METAR text: LSZS 191520Z 03001KT 9999 SCT052 09/M04 Q1029 RMK T
Conditions at: LSZS (SAMEDAN , CH) observed 1520 UTC 19 April 2019
Temperature: 9.0°C (48°F)
Dewpoint: -4.0°C (25°F) [RH = 40%]
Pressure (altimeter): 30.38 inches Hg (1029.0 mb)
Winds: from the NNE (30 degrees) at 1 MPH (1 knots; 0.5 m/s)
Visibility: 6 or more miles (10+ km)
Ceiling: at least 12,000 feet AGL
Clouds: scattered clouds at 5200 feet AGL
Weather: no significant weather observed at this time

METAR text: LSZS 191450Z VRB02KT 9999 SCT052 08/M04 Q1029 RMK S
Conditions at: LSZS (SAMEDAN , CH) observed 1450 UTC 19 April 2019
Temperature: 8.0°C (46°F)
Dewpoint: -4.0°C (25°F) [RH = 42%]
Pressure (altimeter): 30.38 inches Hg (1029.0 mb)
Winds: variable direction winds at 2 MPH (2 knots; 1.0 m/s)
Visibility: 6 or more miles (10+ km)
Ceiling: at least 12,000 feet AGL
Clouds: scattered clouds at 5200 feet AGL
Weather: no significant weather observed at this time

METAR text: LSZS 191420Z VRB02KT 9999 SCT052 08/M04 Q1029 RMK R
Conditions at: LSZS (SAMEDAN , CH) observed 1420 UTC 19 April 2019
Temperature: 8.0°C (46°F)
Dewpoint: -4.0°C (25°F) [RH = 42%]
Pressure (altimeter): 30.38 inches Hg (1029.0 mb)
Winds: variable direction winds at 2 MPH (2 knots; 1.0 m/s)
Visibility: 6 or more miles (10+ km)
Ceiling: at least 12,000 feet AGL
Clouds: scattered clouds at 5200 feet AGL
Weather: no significant weather observed at this time

METAR text: LSZS 191350Z 08001KT 9999 SCT052 11/M02 Q1029 RMK Q
Conditions at: LSZS (SAMEDAN , CH) observed 1350 UTC 19 April 2019
Temperature: 11.0°C (52°F)
Dewpoint: -2.0°C (28°F) [RH = 40%]
Pressure (altimeter): 30.38 inches Hg (1029.0 mb)
Winds: from the E (80 degrees) at 1 MPH (1 knots; 0.5 m/s)
Visibility: 6 or more miles (10+ km)
Ceiling: at least 12,000 feet AGL
Clouds: scattered clouds at 5200 feet AGL
Weather: no significant weather observed at this time

METAR text: LSZS 191320Z 11001KT 9999 SCT047 09/M03 Q1029 RMK P
Conditions at: LSZS (SAMEDAN , CH) observed 1320 UTC 19 April 2019
Temperature: 9.0°C (48°F)
Dewpoint: -3.0°C (27°F) [RH = 43%]
Pressure (altimeter): 30.38 inches Hg (1029.0 mb)
Winds: from the ESE (110 degrees) at 1 MPH (1 knots; 0.5 m/s)
Visibility: 6 or more miles (10+ km)
Ceiling: at least 12,000 feet AGL
Clouds: scattered clouds at 4700 feet AGL
Weather: no significant weather observed at this time

METAR text: LSZS 191250Z VRB02KT 9999 SCT047 09/M04 Q1029 RMK O
Conditions at: LSZS (SAMEDAN , CH) observed 1250 UTC 19 April 2019
Temperature: 9.0°C (48°F)
Dewpoint: -4.0°C (25°F) [RH = 40%]
Pressure (altimeter): 30.38 inches Hg (1029.0 mb)
Winds: variable direction winds at 2 MPH (2 knots; 1.0 m/s)
Visibility: 6 or more miles (10+ km)
Ceiling: at least 12,000 feet AGL
Clouds: scattered clouds at 4700 feet AGL
Weather: no significant weather observed at this time

METAR text: LSZS 191220Z 00000KT 9999 SCT047 08/M04 Q1030 RMK N
Conditions at: LSZS (SAMEDAN , CH) observed 1220 UTC 19 April 2019
Temperature: 8.0°C (46°F)
Dewpoint: -4.0°C (25°F) [RH = 42%]
Pressure (altimeter): 30.41 inches Hg (1030.0 mb)
Winds: calm
Visibility: 6 or more miles (10+ km)
Ceiling: at least 12,000 feet AGL
Clouds: scattered clouds at 4700 feet AGL
Weather: no significant weather observed at this time

METAR text: LSZS 191150Z VRB01KT 9999 SCT050 07/M03 Q1030 RMK M
Conditions at: LSZS (SAMEDAN , CH) observed 1150 UTC 19 April 2019
Temperature: 7.0°C (45°F)
Dewpoint: -3.0°C (27°F) [RH = 49%]
Pressure (altimeter): 30.41 inches Hg (1030.0 mb)
Winds: variable direction winds at 1 MPH (1 knots; 0.5 m/s)
Visibility: 6 or more miles (10+ km)
Ceiling: at least 12,000 feet AGL
Clouds: scattered clouds at 5000 feet AGL
Weather: no significant weather observed at this time

METAR text: LSZS 191120Z 11001KT 9999 BKN050 07/M03 Q1030 RMK L
Conditions at: LSZS (SAMEDAN , CH) observed 1120 UTC 19 April 2019
Temperature: 7.0°C (45°F)
Dewpoint: -3.0°C (27°F) [RH = 49%]
Pressure (altimeter): 30.41 inches Hg (1030.0 mb)
Winds: from the ESE (110 degrees) at 1 MPH (1 knots; 0.5 m/s)
Visibility: 6 or more miles (10+ km)
Ceiling: 5000 feet AGL
Clouds: broken clouds at 5000 feet AGL
Weather: no significant weather observed at this time

METAR text: LSZS 191050Z VRB01KT 9999 SCT050 07/M02 Q1030 RMK K
Conditions at: LSZS (SAMEDAN , CH) observed 1050 UTC 19 April 2019
Temperature: 7.0°C (45°F)
Dewpoint: -2.0°C (28°F) [RH = 53%]
Pressure (altimeter): 30.41 inches Hg (1030.0 mb)
Winds: variable direction winds at 1 MPH (1 knots; 0.5 m/s)
Visibility: 6 or more miles (10+ km)
Ceiling: at least 12,000 feet AGL
Clouds: scattered clouds at 5000 feet AGL
Weather: no significant weather observed at this time

METAR text: LSZS 191020Z 20004KT 9999 SCT050 05/M02 Q1030 RMK J
Conditions at: LSZS (SAMEDAN , CH) observed 1020 UTC 19 April 2019
Temperature: 5.0°C (41°F)
Dewpoint: -2.0°C (28°F) [RH = 60%]
Pressure (altimeter): 30.41 inches Hg (1030.0 mb)
Winds: from the SSW (200 degrees) at 5 MPH (4 knots; 2.1 m/s)
Visibility: 6 or more miles (10+ km)
Ceiling: at least 12,000 feet AGL
Clouds: scattered clouds at 5000 feet AGL
Weather: no significant weather observed at this time

METAR text: LSZS 190950Z 21006KT 9999 SCT045 05/M02 Q1030 RMK I
Conditions at: LSZS (SAMEDAN , CH) observed 0950 UTC 19 April 2019
Temperature: 5.0°C (41°F)
Dewpoint: -2.0°C (28°F) [RH = 60%]
Pressure (altimeter): 30.41 inches Hg (1030.0 mb)
Winds: from the SSW (210 degrees) at 7 MPH (6 knots; 3.1 m/s)
Visibility: 6 or more miles (10+ km)
Ceiling: at least 12,000 feet AGL
Clouds: scattered clouds at 4500 feet AGL
Weather: no significant weather observed at this time

METAR text: LSZS 190920Z 22006KT 9999 SCT040 05/M01 Q1030 RMK H
Conditions at: LSZS (SAMEDAN , CH) observed 0920 UTC 19 April 2019
Temperature: 5.0°C (41°F)
Dewpoint: -1.0°C (30°F) [RH = 65%]
Pressure (altimeter): 30.41 inches Hg (1030.0 mb)
Winds: from the SW (220 degrees) at 7 MPH (6 knots; 3.1 m/s)
Visibility: 6 or more miles (10+ km)
Ceiling: at least 12,000 feet AGL
Clouds: scattered clouds at 4000 feet AGL
Weather: no significant weather observed at this time

METAR text: LSZS 190850Z 20007KT 9999 SCT040 05/M01 Q1030 RMK G
Conditions at: LSZS (SAMEDAN , CH) observed 0850 UTC 19 April 2019
Temperature: 5.0°C (41°F)
Dewpoint: -1.0°C (30°F) [RH = 65%]
Pressure (altimeter): 30.41 inches Hg (1030.0 mb)
Winds: from the SSW (200 degrees) at 8 MPH (7 knots; 3.6 m/s)
Visibility: 6 or more miles (10+ km)
Ceiling: at least 12,000 feet AGL
Clouds: scattered clouds at 4000 feet AGL
Weather: no significant weather observed at this time

METAR text: LSZS 190820Z 19007KT 9999 SCT022 SCT040 04/M01 Q1030 RMK F
Conditions at: LSZS (SAMEDAN , CH) observed 0820 UTC 19 April 2019
Temperature: 4.0°C (39°F)
Dewpoint: -1.0°C (30°F) [RH = 70%]
Pressure (altimeter): 30.41 inches Hg (1030.0 mb)
Winds: from the S (190 degrees) at 8 MPH (7 knots; 3.6 m/s)
Visibility: 6 or more miles (10+ km)
Ceiling: at least 12,000 feet AGL
Clouds: scattered clouds at 2200 feet AGL
scattered clouds at 4000 feet AGL
Weather: no significant weather observed at this time

METAR text: LSZS 190750Z 21008KT 9999 SCT022 BKN040 04/M00 Q1030 RMK E
Conditions at: LSZS (SAMEDAN , CH) observed 0750 UTC 19 April 2019
Temperature: 4.0°C (39°F)
Dewpoint: 0.0°C (32°F) [RH = 75%]
Pressure (altimeter): 30.41 inches Hg (1030.0 mb)
Winds: from the SSW (210 degrees) at 9 MPH (8 knots; 4.1 m/s)
Visibility: 6 or more miles (10+ km)
Ceiling: 4000 feet AGL
Clouds: scattered clouds at 2200 feet AGL
broken clouds at 4000 feet AGL
Weather: no significant weather observed at this time

METAR text: LSZS 190720Z VRB02KT 8000 SCT022 BKN040 04/00 Q1030 RMK D
Conditions at: LSZS (SAMEDAN , CH) observed 0720 UTC 19 April 2019
Temperature: 4.0°C (39°F)
Dewpoint: 0.0°C (32°F) [RH = 75%]
Pressure (altimeter): 30.41 inches Hg (1030.0 mb)
Winds: variable direction winds at 2 MPH (2 knots; 1.0 m/s)
Visibility: 5 miles ( 8 km)
Ceiling: 4000 feet AGL
Clouds: scattered clouds at 2200 feet AGL
broken clouds at 4000 feet AGL
Weather: no significant weather observed at this time

METAR text: LSZS 190650Z VRB02KT 8000 SCT022 BKN030 03/00 Q1030 RMK C
Conditions at: LSZS (SAMEDAN , CH) observed 0650 UTC 19 April 2019
Temperature: 3.0°C (37°F)
Dewpoint: 0.0°C (32°F) [RH = 81%]
Pressure (altimeter): 30.41 inches Hg (1030.0 mb)
Winds: variable direction winds at 2 MPH (2 knots; 1.0 m/s)
Visibility: 5 miles ( 8 km)
Ceiling: 3000 feet AGL
Clouds: scattered clouds at 2200 feet AGL
broken clouds at 3000 feet AGL
Weather: no significant weather observed at this time

METAR text: LSZS 190620Z VRB03KT 8000 BKN028 SCT060 03/00 Q1029 RMK B
Conditions at: LSZS (SAMEDAN , CH) observed 0620 UTC 19 April 2019
Temperature: 3.0°C (37°F)
Dewpoint: 0.0°C (32°F) [RH = 81%]
Pressure (altimeter): 30.38 inches Hg (1029.0 mb)
Winds: variable direction winds at 3 MPH (3 knots; 1.5 m/s)
Visibility: 5 miles ( 8 km)
Ceiling: 2800 feet AGL
Clouds: broken clouds at 2800 feet AGL
scattered clouds at 6000 feet AGL
Weather: no significant weather observed at this time

METAR text: LSZS 190550Z VRB03KT 8000 BKN024 BKN060 03/00 Q1029 RMK A
Conditions at: LSZS (SAMEDAN , CH) observed 0550 UTC 19 April 2019
Temperature: 3.0°C (37°F)
Dewpoint: 0.0°C (32°F) [RH = 81%]
Pressure (altimeter): 30.38 inches Hg (1029.0 mb)
Winds: variable direction winds at 3 MPH (3 knots; 1.5 m/s)
Visibility: 5 miles ( 8 km)
Ceiling: 2400 feet AGL
Clouds: broken clouds at 2400 feet AGL
broken clouds at 6000 feet AGL
Weather: no significant weather observed at this time

METAR text: LSZS 190520Z AUTO 18004KT 9999 SCT027 SCT032 BKN060 02/00 Q1029
Conditions at: LSZS (SAMEDAN , CH) observed 0520 UTC 19 April 2019
Temperature: 2.0°C (36°F)
Dewpoint: 0.0°C (32°F) [RH = 87%]
Pressure (altimeter): 30.38 inches Hg (1029.0 mb)
Winds: from the S (180 degrees) at 5 MPH (4 knots; 2.1 m/s)
Visibility: 6 or more miles (10+ km)
Ceiling: 6000 feet AGL
Clouds: scattered clouds at 2700 feet AGL
scattered clouds at 3200 feet AGL
broken clouds at 6000 feet AGL
Weather: no significant weather observed at this time

METAR text: LSZS 190450Z AUTO 15006KT 9999 FEW027 SCT044 OVC050 03/01 Q1029 RERASN
Conditions at: LSZS (SAMEDAN , CH) observed 0450 UTC 19 April 2019
Temperature: 3.0°C (37°F)
Dewpoint: 1.0°C (34°F) [RH = 87%]
Pressure (altimeter): 30.38 inches Hg (1029.0 mb)
Winds: from the SSE (150 degrees) at 7 MPH (6 knots; 3.1 m/s)
Visibility: 6 or more miles (10+ km)
Ceiling: 5000 feet AGL
Clouds: few clouds at 2700 feet AGL
scattered clouds at 4400 feet AGL
overcast cloud deck at 5000 feet AGL
Weather: no significant weather observed at this time

METAR text: LSZS 190420Z AUTO 16006KT 9999 FEW025 OVC050 03/00 Q1028
Conditions at: LSZS (SAMEDAN , CH) observed 0420 UTC 19 April 2019
Temperature: 3.0°C (37°F)
Dewpoint: 0.0°C (32°F) [RH = 81%]
Pressure (altimeter): 30.35 inches Hg (1028.0 mb)
Winds: from the SSE (160 degrees) at 7 MPH (6 knots; 3.1 m/s)
Visibility: 6 or more miles (10+ km)
Ceiling: 5000 feet AGL
Clouds: few clouds at 2500 feet AGL
overcast cloud deck at 5000 feet AGL
Weather: no significant weather observed at this time

METAR text: LSZS 190350Z AUTO 14005KT 9999 FEW009 OVC050 03/01 Q1028
Conditions at: LSZS (SAMEDAN , CH) observed 0350 UTC 19 April 2019
Temperature: 3.0°C (37°F)
Dewpoint: 1.0°C (34°F) [RH = 87%]
Pressure (altimeter): 30.35 inches Hg (1028.0 mb)
Winds: from the SE (140 degrees) at 6 MPH (5 knots; 2.6 m/s)
Visibility: 6 or more miles (10+ km)
Ceiling: 5000 feet AGL
Clouds: few clouds at 900 feet AGL
overcast cloud deck at 5000 feet AGL
Weather: no significant weather observed at this time

METAR text: LSZS 190320Z AUTO 18005KT 150V220 8000 FEW007 OVC050 02/01 Q1028
Conditions at: LSZS (SAMEDAN , CH) observed 0320 UTC 19 April 2019
Temperature: 2.0°C (36°F)
Dewpoint: 1.0°C (34°F) [RH = 93%]
Pressure (altimeter): 30.35 inches Hg (1028.0 mb)
Winds: from the S (180 degrees) at 6 MPH (5 knots; 2.6 m/s)
Visibility: 5 miles ( 8 km)
Ceiling: 5000 feet AGL
Clouds: few clouds at 700 feet AGL
overcast cloud deck at 5000 feet AGL
Weather: no significant weather observed at this time

METAR text: LSZS 190250Z AUTO 16006KT 130V200 8000 BKN033 SCT050 03/01 Q1028
Conditions at: LSZS (SAMEDAN , CH) observed 0250 UTC 19 April 2019
Temperature: 3.0°C (37°F)
Dewpoint: 1.0°C (34°F) [RH = 87%]
Pressure (altimeter): 30.35 inches Hg (1028.0 mb)
Winds: from the SSE (160 degrees) at 7 MPH (6 knots; 3.1 m/s)
Visibility: 5 miles ( 8 km)
Ceiling: 3300 feet AGL
Clouds: broken clouds at 3300 feet AGL
scattered clouds at 5000 feet AGL
Weather: no significant weather observed at this time

METAR text: LSZS 190220Z AUTO 15005KT 120V220 9000 SCT033 SCT038 BKN050 03/00 Q1028
Conditions at: LSZS (SAMEDAN , CH) observed 0220 UTC 19 April 2019
Temperature: 3.0°C (37°F)
Dewpoint: 0.0°C (32°F) [RH = 81%]
Pressure (altimeter): 30.35 inches Hg (1028.0 mb)
Winds: from the SSE (150 degrees) at 6 MPH (5 knots; 2.6 m/s)
Visibility: 6 miles ( 9 km)
Ceiling: 5000 feet AGL
Clouds: scattered clouds at 3300 feet AGL
scattered clouds at 3800 feet AGL
broken clouds at 5000 feet AGL
Weather: no significant weather observed at this time

METAR text: LSZS 190150Z AUTO 16004KT 9999 SCT041 OVC050 03/00 Q1028
Conditions at: LSZS (SAMEDAN , CH) observed 0150 UTC 19 April 2019
Temperature: 3.0°C (37°F)
Dewpoint: 0.0°C (32°F) [RH = 81%]
Pressure (altimeter): 30.35 inches Hg (1028.0 mb)
Winds: from the SSE (160 degrees) at 5 MPH (4 knots; 2.1 m/s)
Visibility: 6 or more miles (10+ km)
Ceiling: 5000 feet AGL
Clouds: scattered clouds at 4100 feet AGL
overcast cloud deck at 5000 feet AGL
Weather: no significant weather observed at this time

METAR text: LSZS 190120Z AUTO 16006KT 140V220 9999 SCT043 OVC050 03/00 Q1028
Conditions at: LSZS (SAMEDAN , CH) observed 0120 UTC 19 April 2019
Temperature: 3.0°C (37°F)
Dewpoint: 0.0°C (32°F) [RH = 81%]
Pressure (altimeter): 30.35 inches Hg (1028.0 mb)
Winds: from the SSE (160 degrees) at 7 MPH (6 knots; 3.1 m/s)
Visibility: 6 or more miles (10+ km)
Ceiling: 5000 feet AGL
Clouds: scattered clouds at 4300 feet AGL
overcast cloud deck at 5000 feet AGL
Weather: no significant weather observed at this time

METAR text: LSZS 190050Z AUTO 17003KT 140V220 9999 OVC050 03/M00 Q1028
Conditions at: LSZS (SAMEDAN , CH) observed 0050 UTC 19 April 2019
Temperature: 3.0°C (37°F)
Dewpoint: 0.0°C (32°F) [RH = 81%]
Pressure (altimeter): 30.35 inches Hg (1028.0 mb)
Winds: from the S (170 degrees) at 3 MPH (3 knots; 1.5 m/s)
Visibility: 6 or more miles (10+ km)
Ceiling: 5000 feet AGL
Clouds: overcast cloud deck at 5000 feet AGL
Weather: no significant weather observed at this time

METAR text: LSZS 190020Z AUTO 14006KT 9999 OVC046 SCT060 03/00 Q1028
Conditions at: LSZS (SAMEDAN , CH) observed 0020 UTC 19 April 2019
Temperature: 3.0°C (37°F)
Dewpoint: 0.0°C (32°F) [RH = 81%]
Pressure (altimeter): 30.35 inches Hg (1028.0 mb)
Winds: from the SE (140 degrees) at 7 MPH (6 knots; 3.1 m/s)
Visibility: 6 or more miles (10+ km)
Ceiling: 4600 feet AGL
Clouds: overcast cloud deck at 4600 feet AGL
scattered clouds at 6000 feet AGL
Weather: no significant weather observed at this time

METAR text: LSZS 182350Z AUTO 19003KT 150V240 9000 FEW035 OVC045 03/00 Q1028
Conditions at: LSZS (SAMEDAN , CH) observed 2350 UTC 18 April 2019
Temperature: 3.0°C (37°F)
Dewpoint: 0.0°C (32°F) [RH = 81%]
Pressure (altimeter): 30.35 inches Hg (1028.0 mb)
Winds: from the S (190 degrees) at 3 MPH (3 knots; 1.5 m/s)
Visibility: 6 miles ( 9 km)
Ceiling: 4500 feet AGL
Clouds: few clouds at 3500 feet AGL
overcast cloud deck at 4500 feet AGL
Weather: no significant weather observed at this time

METAR text: LSZS 182320Z AUTO 17006KT 7000 FEW028 BKN043 04/01 Q1028
Conditions at: LSZS (SAMEDAN , CH) observed 2320 UTC 18 April 2019
Temperature: 4.0°C (39°F)
Dewpoint: 1.0°C (34°F) [RH = 81%]
Pressure (altimeter): 30.35 inches Hg (1028.0 mb)
Winds: from the S (170 degrees) at 7 MPH (6 knots; 3.1 m/s)
Visibility: 4 miles ( 7 km)
Ceiling: 4300 feet AGL
Clouds: few clouds at 2800 feet AGL
broken clouds at 4300 feet AGL
Weather: no significant weather observed at this time

METAR text: LSZS 182250Z AUTO VRB01KT 8000 BKN034 02/00 Q1028
Conditions at: LSZS (SAMEDAN , CH) observed 2250 UTC 18 April 2019
Temperature: 2.0°C (36°F)
Dewpoint: 0.0°C (32°F) [RH = 87%]
Pressure (altimeter): 30.35 inches Hg (1028.0 mb)
Winds: variable direction winds at 1 MPH (1 knots; 0.5 m/s)
Visibility: 5 miles ( 8 km)
Ceiling: 3400 feet AGL
Clouds: broken clouds at 3400 feet AGL
Weather: no significant weather observed at this time

METAR text: LSZS 182220Z AUTO VRB03KT 9999 -DZ BKN035 03/01 Q1028 RERASN
Conditions at: LSZS (SAMEDAN , CH) observed 2220 UTC 18 April 2019
Temperature: 3.0°C (37°F)
Dewpoint: 1.0°C (34°F) [RH = 87%]
Pressure (altimeter): 30.35 inches Hg (1028.0 mb)
Winds: variable direction winds at 3 MPH (3 knots; 1.5 m/s)
Visibility: 6 or more miles (10+ km)
Ceiling: 3500 feet AGL
Clouds: broken clouds at 3500 feet AGL
Weather: -DZ  (light drizzle)

METAR text: LSZS 182150Z AUTO VRB01KT 8000 -RASN BKN/// 03/00 Q1028 RESN
Conditions at: LSZS (SAMEDAN , CH) observed 2150 UTC 18 April 2019
Temperature: 3.0°C (37°F)
Dewpoint: 0.0°C (32°F) [RH = 81%]
Pressure (altimeter): 30.35 inches Hg (1028.0 mb)
Winds: variable direction winds at 1 MPH (1 knots; 0.5 m/s)
Visibility: 5 miles ( 8 km)
Ceiling: unknown
Clouds: missing
Weather: -RA -SN  (light rain, light snow)

METAR text: LSZS 182120Z AUTO 19003KT 9999 -RA OVC039 03/00 Q1028 RERASN
Conditions at: LSZS (SAMEDAN , CH) observed 2120 UTC 18 April 2019
Temperature: 3.0°C (37°F)
Dewpoint: 0.0°C (32°F) [RH = 81%]
Pressure (altimeter): 30.35 inches Hg (1028.0 mb)
Winds: from the S (190 degrees) at 3 MPH (3 knots; 1.5 m/s)
Visibility: 6 or more miles (10+ km)
Ceiling: 3900 feet AGL
Clouds: overcast cloud deck at 3900 feet AGL
Weather: -RA  (light rain)

METAR text: LSZS 182050Z AUTO 16004KT 9999 FEW030 OVC043 04/00 Q1027
Conditions at: LSZS (SAMEDAN , CH) observed 2050 UTC 18 April 2019
Temperature: 4.0°C (39°F)
Dewpoint: 0.0°C (32°F) [RH = 75%]
Pressure (altimeter): 30.32 inches Hg (1027.0 mb)
Winds: from the SSE (160 degrees) at 5 MPH (4 knots; 2.1 m/s)
Visibility: 6 or more miles (10+ km)
Ceiling: 4300 feet AGL
Clouds: few clouds at 3000 feet AGL
overcast cloud deck at 4300 feet AGL
Weather: no significant weather observed at this time

METAR text: LSZS 182020Z AUTO 18003KT 9999 FEW031 OVC049 04/M00 Q1027
Conditions at: LSZS (SAMEDAN , CH) observed 2020 UTC 18 April 2019
Temperature: 4.0°C (39°F)
Dewpoint: 0.0°C (32°F) [RH = 75%]
Pressure (altimeter): 30.32 inches Hg (1027.0 mb)
Winds: from the S (180 degrees) at 3 MPH (3 knots; 1.5 m/s)
Visibility: 6 or more miles (10+ km)
Ceiling: 4900 feet AGL
Clouds: few clouds at 3100 feet AGL
overcast cloud deck at 4900 feet AGL
Weather: no significant weather observed at this time

METAR text: LSZS 181950Z AUTO 18004KT 9999 SCT044 OVC049 03/00 Q1027
Conditions at: LSZS (SAMEDAN , CH) observed 1950 UTC 18 April 2019
Temperature: 3.0°C (37°F)
Dewpoint: 0.0°C (32°F) [RH = 81%]
Pressure (altimeter): 30.32 inches Hg (1027.0 mb)
Winds: from the S (180 degrees) at 5 MPH (4 knots; 2.1 m/s)
Visibility: 6 or more miles (10+ km)
Ceiling: 4900 feet AGL
Clouds: scattered clouds at 4400 feet AGL
overcast cloud deck at 4900 feet AGL
Weather: no significant weather observed at this time

METAR text: LSZS 181920Z AUTO 18004KT 9999 -DZ BKN037 BKN042 03/00 Q1027
Conditions at: LSZS (SAMEDAN , CH) observed 1920 UTC 18 April 2019
Temperature: 3.0°C (37°F)
Dewpoint: 0.0°C (32°F) [RH = 81%]
Pressure (altimeter): 30.32 inches Hg (1027.0 mb)
Winds: from the S (180 degrees) at 5 MPH (4 knots; 2.1 m/s)
Visibility: 6 or more miles (10+ km)
Ceiling: 3700 feet AGL
Clouds: broken clouds at 3700 feet AGL
broken clouds at 4200 feet AGL
Weather: -DZ  (light drizzle)

METAR text: LSZS 181850Z AUTO 19005KT 9999 -DZ BKN044 SCT050 04/00 Q1026
Conditions at: LSZS (SAMEDAN , CH) observed 1850 UTC 18 April 2019
Temperature: 4.0°C (39°F)
Dewpoint: 0.0°C (32°F) [RH = 75%]
Pressure (altimeter): 30.30 inches Hg (1026.0 mb)
Winds: from the S (190 degrees) at 6 MPH (5 knots; 2.6 m/s)
Visibility: 6 or more miles (10+ km)
Ceiling: 4400 feet AGL
Clouds: broken clouds at 4400 feet AGL
scattered clouds at 5000 feet AGL
Weather: -DZ  (light drizzle)

METAR text: LSZS 181820Z AUTO 18006KT 9999 FEW036 SCT043 BKN050 04/00 Q1026
Conditions at: LSZS (SAMEDAN , CH) observed 1820 UTC 18 April 2019
Temperature: 4.0°C (39°F)
Dewpoint: 0.0°C (32°F) [RH = 75%]
Pressure (altimeter): 30.30 inches Hg (1026.0 mb)
Winds: from the S (180 degrees) at 7 MPH (6 knots; 3.1 m/s)
Visibility: 6 or more miles (10+ km)
Ceiling: 5000 feet AGL
Clouds: few clouds at 3600 feet AGL
scattered clouds at 4300 feet AGL
broken clouds at 5000 feet AGL
Weather: no significant weather observed at this time

METAR text: LSZS 181750Z AUTO 20008KT 9999 BKN041 BKN050 04/M00 Q1026
Conditions at: LSZS (SAMEDAN , CH) observed 1750 UTC 18 April 2019
Temperature: 4.0°C (39°F)
Dewpoint: 0.0°C (32°F) [RH = 75%]
Pressure (altimeter): 30.30 inches Hg (1026.0 mb)
Winds: from the SSW (200 degrees) at 9 MPH (8 knots; 4.1 m/s)
Visibility: 6 or more miles (10+ km)
Ceiling: 4100 feet AGL
Clouds: broken clouds at 4100 feet AGL
broken clouds at 5000 feet AGL
Weather: no significant weather observed at this time

METAR text: LSZS 181720Z AUTO 21007KT 9999 BKN043 04/00 Q1026
Conditions at: LSZS (SAMEDAN , CH) observed 1720 UTC 18 April 2019
Temperature: 4.0°C (39°F)
Dewpoint: 0.0°C (32°F) [RH = 75%]
Pressure (altimeter): 30.30 inches Hg (1026.0 mb)
Winds: from the SSW (210 degrees) at 8 MPH (7 knots; 3.6 m/s)
Visibility: 6 or more miles (10+ km)
Ceiling: 4300 feet AGL
Clouds: broken clouds at 4300 feet AGL
Weather: no significant weather observed at this time

METAR text: LSZS 181650Z 22006KT 9999 SCT050 BKN072 05/00 Q1025 RMK W
Conditions at: LSZS (SAMEDAN , CH) observed 1650 UTC 18 April 2019
Temperature: 5.0°C (41°F)
Dewpoint: 0.0°C (32°F) [RH = 70%]
Pressure (altimeter): 30.27 inches Hg (1025.0 mb)
Winds: from the SW (220 degrees) at 7 MPH (6 knots; 3.1 m/s)
Visibility: 6 or more miles (10+ km)
Ceiling: 7200 feet AGL
Clouds: scattered clouds at 5000 feet AGL
broken clouds at 7200 feet AGL
Weather: no significant weather observed at this time

METAR text: LSZS 181620Z 23010KT 9999 SCT050 BKN060 05/00 Q1025 RMK V
Conditions at: LSZS (SAMEDAN , CH) observed 1620 UTC 18 April 2019
Temperature: 5.0°C (41°F)
Dewpoint: 0.0°C (32°F) [RH = 70%]
Pressure (altimeter): 30.27 inches Hg (1025.0 mb)
Winds: from the SW (230 degrees) at 12 MPH (10 knots; 5.1 m/s)
Visibility: 6 or more miles (10+ km)
Ceiling: 6000 feet AGL
Clouds: scattered clouds at 5000 feet AGL
broken clouds at 6000 feet AGL
Weather: no significant weather observed at this time

METAR text: LSZS 181550Z 23010KT 9999 BKN050 05/M00 Q1025 RMK U
Conditions at: LSZS (SAMEDAN , CH) observed 1550 UTC 18 April 2019
Temperature: 5.0°C (41°F)
Dewpoint: 0.0°C (32°F) [RH = 70%]
Pressure (altimeter): 30.27 inches Hg (1025.0 mb)
Winds: from the SW (230 degrees) at 12 MPH (10 knots; 5.1 m/s)
Visibility: 6 or more miles (10+ km)
Ceiling: 5000 feet AGL
Clouds: broken clouds at 5000 feet AGL
Weather: no significant weather observed at this time

METAR text: LSZS 181520Z 24009KT 9999 SCT050 BKN063 05/M00 Q1025 RMK T
Conditions at: LSZS (SAMEDAN , CH) observed 1520 UTC 18 April 2019
Temperature: 5.0°C (41°F)
Dewpoint: 0.0°C (32°F) [RH = 70%]
Pressure (altimeter): 30.27 inches Hg (1025.0 mb)
Winds: from the WSW (240 degrees) at 10 MPH (9 knots; 4.6 m/s)
Visibility: 6 or more miles (10+ km)
Ceiling: 6300 feet AGL
Clouds: scattered clouds at 5000 feet AGL
broken clouds at 6300 feet AGL
Weather: no significant weather observed at this time

METAR text: LSZS 181450Z 24009KT 9999 SCT050 BKN070 05/M01 Q1025 RMK S
Conditions at: LSZS (SAMEDAN , CH) observed 1450 UTC 18 April 2019
Temperature: 5.0°C (41°F)
Dewpoint: -1.0°C (30°F) [RH = 65%]
Pressure (altimeter): 30.27 inches Hg (1025.0 mb)
Winds: from the WSW (240 degrees) at 10 MPH (9 knots; 4.6 m/s)
Visibility: 6 or more miles (10+ km)
Ceiling: 7000 feet AGL
Clouds: scattered clouds at 5000 feet AGL
broken clouds at 7000 feet AGL
Weather: no significant weather observed at this time

METAR text: LSZS 181420Z 22009KT 9999 SCT050 BKN070 06/M01 Q1024 RMK R
Conditions at: LSZS (SAMEDAN , CH) observed 1420 UTC 18 April 2019
Temperature: 6.0°C (43°F)
Dewpoint: -1.0°C (30°F) [RH = 61%]
Pressure (altimeter): 30.24 inches Hg (1024.0 mb)
Winds: from the SW (220 degrees) at 10 MPH (9 knots; 4.6 m/s)
Visibility: 6 or more miles (10+ km)
Ceiling: 7000 feet AGL
Clouds: scattered clouds at 5000 feet AGL
broken clouds at 7000 feet AGL
Weather: no significant weather observed at this time

METAR text: LSZS 181350Z 20009KT 9999 BKN050 07/M02 Q1024 RMK Q
Conditions at: LSZS (SAMEDAN , CH) observed 1350 UTC 18 April 2019
Temperature: 7.0°C (45°F)
Dewpoint: -2.0°C (28°F) [RH = 53%]
Pressure (altimeter): 30.24 inches Hg (1024.0 mb)
Winds: from the SSW (200 degrees) at 10 MPH (9 knots; 4.6 m/s)
Visibility: 6 or more miles (10+ km)
Ceiling: 5000 feet AGL
Clouds: broken clouds at 5000 feet AGL
Weather: no significant weather observed at this time

METAR text: LSZS 181320Z 20010KT 9999 BKN050 06/M02 Q1024 RMK P
Conditions at: LSZS (SAMEDAN , CH) observed 1320 UTC 18 April 2019
Temperature: 6.0°C (43°F)
Dewpoint: -2.0°C (28°F) [RH = 56%]
Pressure (altimeter): 30.24 inches Hg (1024.0 mb)
Winds: from the SSW (200 degrees) at 12 MPH (10 knots; 5.1 m/s)
Visibility: 6 or more miles (10+ km)
Ceiling: 5000 feet AGL
Clouds: broken clouds at 5000 feet AGL
Weather: no significant weather observed at this time

METAR text: LSZS 181250Z 22011KT 9999 BKN050 07/M02 Q1024 RMK O
Conditions at: LSZS (SAMEDAN , CH) observed 1250 UTC 18 April 2019
Temperature: 7.0°C (45°F)
Dewpoint: -2.0°C (28°F) [RH = 53%]
Pressure (altimeter): 30.24 inches Hg (1024.0 mb)
Winds: from the SW (220 degrees) at 13 MPH (11 knots; 5.7 m/s)
Visibility: 6 or more miles (10+ km)
Ceiling: 5000 feet AGL
Clouds: broken clouds at 5000 feet AGL
Weather: no significant weather observed at this time

METAR text: LSZS 181220Z 21009KT 9999 BKN050 07/M03 Q1024 RMK N
Conditions at: LSZS (SAMEDAN , CH) observed 1220 UTC 18 April 2019
Temperature: 7.0°C (45°F)
Dewpoint: -3.0°C (27°F) [RH = 49%]
Pressure (altimeter): 30.24 inches Hg (1024.0 mb)
Winds: from the SSW (210 degrees) at 10 MPH (9 knots; 4.6 m/s)
Visibility: 6 or more miles (10+ km)
Ceiling: 5000 feet AGL
Clouds: broken clouds at 5000 feet AGL
Weather: no significant weather observed at this time

Forecast for: LSZS (SAMEDAN , CH)
Text: TAF LSZS 191425Z 1915/1924 08001KT 9999 SCT052 TX09/1915Z
Forecast period: 1500 UTC 19 April 2019 to 0000 UTC 20 April 2019
Forecast type: FROM: standard forecast or significant change
Winds: from the E (80 degrees) at 1 MPH (1 knots; 0.5 m/s)
Visibility: 6 or more miles 10+ km)
Ceiling: at least 12,000 feet AGL
Clouds: scattered clouds at 5200 feet AGL
Weather: no significant weather forecast for this period
Text: BECMG 1915/1918 CAVOK
Forecast period: 1500 UTC 19 April 2019 to 0000 UTC 20 April 2019
Forecast type: BECOMING: Conditions expected to become as follows by 1800 UTC 19 April 2019
Winds: from the E (80 degrees) at 1 MPH (1 knots; 0.5 m/s)
Visibility: 6 or more miles 10+ km)
Ceiling: unknown
Clouds: missing
Weather: NSW  (no significant weather)